Time;durP1;ratioP1;P1;durP2;ratioP2;P2;SDS_P1;SDS_P2;PMS_P1;PMS_P2;Temp;Humidity;BMP_temperature;BMP_pressure;BME280_temperature;BME280_humidity;BME280_pressure;Samples;Min_cycle;Max_cycle;Signal;HPM_P1;HPM_P2
2022/10/13 00:00:26;;;;;;;24.38;12.98;;;;;;;9.86;67.56;94666.16;5063183;28;20028;-80
2022/10/13 00:02:52;;;;;;;19.60;10.63;;;;;;;9.86;67.35;94670.72;5063274;28;20036;-82
2022/10/13 00:05:18;;;;;;;31.83;14.77;;;;;;;9.87;67.27;94672.28;5063043;28;20039;-86
2022/10/13 00:07:43;;;;;;;25.05;13.30;;;;;;;9.87;67.31;94664.28;5063197;28;20215;-83
2022/10/13 00:10:09;;;;;;;26.67;14.50;;;;;;;9.85;67.43;94659.28;5063023;28;20092;-80
2022/10/13 00:12:36;;;;;;;29.17;14.20;;;;;;;9.82;67.52;94660.63;5062972;28;20092;-86
2022/10/13 00:15:01;;;;;;;27.20;14.02;;;;;;;9.81;67.73;94653.72;5061986;28;20222;-82
2022/10/13 00:17:27;;;;;;;22.70;11.77;;;;;;;9.80;67.89;94662.78;5062983;28;20020;-83
2022/10/13 00:19:52;;;;;;;26.08;11.52;;;;;;;9.79;67.70;94661.22;5063041;28;20043;-79
2022/10/13 00:22:18;;;;;;;23.33;11.77;;;;;;;9.79;67.93;94655.88;5062577;28;20112;-84
2022/10/13 00:24:43;;;;;;;19.33;11.10;;;;;;;9.76;66.97;94645.78;5061838;28;20033;-86
2022/10/13 00:27:08;;;;;;;26.00;11.75;;;;;;;9.74;67.34;94655.16;5063061;28;20107;-88
2022/10/13 00:29:34;;;;;;;24.05;11.52;;;;;;;9.74;68.03;94647.94;5063475;28;20017;-88
2022/10/13 00:31:59;;;;;;;16.67;9.73;;;;;;;9.72;67.94;94650.13;5063340;28;20016;-87
2022/10/13 00:34:25;;;;;;;26.55;10.65;;;;;;;9.68;67.95;94638.47;5063174;28;20069;-88
2022/10/13 00:36:50;;;;;;;22.13;10.07;;;;;;;9.70;67.63;94641.63;5063265;28;20096;-88
2022/10/13 00:39:15;;;;;;;18.10;8.93;;;;;;;9.72;67.45;94642.13;5063272;28;20013;-87
2022/10/13 00:41:41;;;;;;;16.90;8.20;;;;;;;9.72;67.16;94633.34;5063027;28;20310;-87
2022/10/13 00:44:45;;;;;;;21.45;9.45;;;;;;;9.70;67.39;94641.63;5063141;28;20021;-89
2022/10/13 00:47:10;;;;;;;22.83;9.30;;;;;;;9.68;67.45;94632.34;5060664;28;20283;-87
2022/10/13 00:49:36;;;;;;;18.85;9.13;;;;;;;9.65;67.56;94631.06;5061806;28;20071;-87
2022/10/13 00:52:02;;;;;;;16.45;8.82;;;;;;;9.66;67.43;94629.97;5061715;28;20051;-87
2022/10/13 00:54:28;;;;;;;14.05;7.20;;;;;;;9.67;67.68;94634.22;5063164;28;20029;-87
2022/10/13 00:56:57;;;;;;;18.95;10.00;;;;;;;9.64;67.71;94629.47;5062894;28;20033;-87
2022/10/13 00:59:27;;;;;;;18.48;9.48;;;;;;;9.66;67.91;94639.84;5062906;28;20041;-87
2022/10/13 01:01:54;;;;;;;17.80;9.38;;;;;;;9.66;68.18;94623.88;5062958;28;20037;-87
2022/10/13 01:04:23;;;;;;;14.02;6.93;;;;;;;9.63;67.93;94633.22;5062687;28;20025;-87
2022/10/13 01:06:49;;;;;;;15.38;8.55;;;;;;;9.57;68.24;94643.13;5062338;28;20021;-85
2022/10/13 01:09:14;;;;;;;17.58;8.85;;;;;;;9.55;68.36;94639.97;5061363;28;20036;-87
2022/10/13 01:11:46;;;;;;;16.88;8.00;;;;;;;9.51;68.56;94633.63;5062648;28;20031;-86
2022/10/13 01:14:43;;;;;;;16.20;8.63;;;;;;;9.49;68.37;94629.69;5061569;28;20025;-87
2022/10/13 01:17:22;;;;;;;13.88;8.10;;;;;;;9.40;68.60;94633.00;5062574;28;20017;-86
2022/10/13 01:20:09;;;;;;;26.10;9.23;;;;;;;9.41;68.81;94628.47;5062412;28;20017;-87
2022/10/13 01:22:59;;;;;;;17.08;8.60;;;;;;;9.39;68.92;94630.59;5062555;28;20020;-87
2022/10/13 01:25:32;;;;;;;20.05;8.38;;;;;;;9.34;68.97;94633.31;5062539;28;20074;-87
2022/10/13 01:28:16;;;;;;;18.70;8.70;;;;;;;9.32;69.20;94636.28;5062636;28;20024;-87
2022/10/13 01:30:50;;;;;;;21.27;8.90;;;;;;;9.28;69.73;94629.97;5062400;28;20025;-87
2022/10/13 01:33:29;;;;;;;23.35;12.05;;;;;;;9.22;70.18;94636.41;5062474;28;20040;-88
2022/10/13 01:36:10;;;;;;;24.75;12.00;;;;;;;9.23;71.19;94627.34;5062573;28;20027;-89
2022/10/13 01:39:02;;;;;;;23.77;11.57;;;;;;;9.23;71.61;94635.31;5062902;28;20060;-88
2022/10/13 01:41:33;;;;;;;18.63;10.90;;;;;;;9.20;71.56;94630.59;5061585;28;20271;-89
2022/10/13 01:44:07;;;;;;;21.15;11.45;;;;;;;9.21;71.89;94632.16;5062520;28;20075;-88
2022/10/13 01:46:36;;;;;;;25.48;11.85;;;;;;;9.20;72.24;94627.94;5062250;28;20025;-89
2022/10/13 01:49:06;;;;;;;23.95;12.38;;;;;;;9.17;72.14;94625.81;5062377;28;20021;-87
2022/10/13 01:51:34;;;;;;;21.00;11.95;;;;;;;9.16;72.20;94626.88;5062434;28;20204;-88
2022/10/13 01:53:59;;;;;;;23.10;10.82;;;;;;;9.15;72.12;94626.09;5062196;28;20021;-86
2022/10/13 01:56:25;;;;;;;22.48;12.20;;;;;;;9.16;72.29;94624.22;5063096;28;20259;-85
2022/10/13 01:58:53;;;;;;;22.05;11.23;;;;;;;9.17;72.28;94621.28;5065560;28;20028;-85
2022/10/13 02:02:00;;;;;;;22.88;11.55;;;;;;;9.16;72.30;94618.91;5066125;28;20096;-88
2022/10/13 02:04:41;;;;;;;25.90;12.43;;;;;;;9.16;72.14;94624.22;5065541;28;20032;-90
2022/10/13 02:07:17;;;;;;;17.60;9.90;;;;;;;9.11;72.34;94614.47;5066314;28;20036;-88
2022/10/13 02:09:55;;;;;;;21.08;10.90;;;;;;;9.11;72.21;94617.13;5066075;28;20250;-90
2022/10/13 02:12:41;;;;;;;17.92;9.35;;;;;;;9.11;72.13;94614.47;5066213;28;20092;-88
2022/10/13 02:15:12;;;;;;;23.77;9.75;;;;;;;9.13;72.33;94619.50;5065876;28;20113;-87
2022/10/13 02:17:40;;;;;;;20.27;9.25;;;;;;;9.12;72.69;94609.91;5065771;28;20079;-89
2022/10/13 02:20:07;;;;;;;20.05;10.35;;;;;;;9.14;71.95;94607.75;5065699;28;20223;-89
2022/10/13 02:22:39;;;;;;;16.45;9.88;;;;;;;9.12;71.98;94613.38;5065421;28;20092;-86
2022/10/13 02:25:06;;;;;;;22.92;10.05;;;;;;;9.12;72.21;94613.38;5065409;28;20069;-89
2022/10/13 02:27:32;;;;;;;17.65;10.27;;;;;;;9.14;72.47;94613.91;5066080;28;20032;-89
2022/10/13 02:29:58;;;;;;;19.00;10.55;;;;;;;9.15;72.36;94610.16;5065930;28;20365;-89
2022/10/13 02:32:23;;;;;;;16.23;9.80;;;;;;;9.15;72.33;94604.03;5065901;28;20036;-90
2022/10/13 02:34:49;;;;;;;23.98;11.43;;;;;;;9.15;72.85;94601.38;5065682;28;20078;-90
2022/10/13 02:37:15;;;;;;;30.50;11.65;;;;;;;9.17;72.76;94604.56;5065640;28;20039;-89
2022/10/13 02:39:40;;;;;;;25.88;11.48;;;;;;;9.14;72.68;94595.28;5065695;28;20036;-90
2022/10/13 02:42:06;;;;;;;20.60;11.45;;;;;;;9.15;73.30;94601.38;5065503;28;20429;-89
2022/10/13 02:44:32;;;;;;;25.27;12.88;;;;;;;9.15;73.72;94590.75;5065379;28;20025;-87
2022/10/13 02:46:58;;;;;;;33.28;14.32;;;;;;;9.11;74.18;94585.19;5064777;28;20029;-87
2022/10/13 02:49:23;;;;;;;26.10;13.98;;;;;;;9.11;74.30;94597.72;5063635;28;20398;-86
2022/10/13 02:51:49;;;;;;;21.08;12.80;;;;;;;9.09;74.20;94597.22;5064915;28;20043;-86
2022/10/13 02:54:14;;;;;;;25.08;13.15;;;;;;;9.08;74.25;94592.94;5064870;28;20427;-87
2022/10/13 02:56:40;;;;;;;24.55;12.40;;;;;;;9.07;74.10;94594.03;5064703;28;20013;-87
2022/10/13 02:59:05;;;;;;;25.70;13.68;;;;;;;9.03;74.19;94580.50;5064630;28;20027;-87
2022/10/13 03:01:31;;;;;;;25.02;14.23;;;;;;;9.01;74.05;94583.44;5064766;28;20016;-87
2022/10/13 03:03:57;;;;;;;25.52;14.10;;;;;;;9.03;74.18;94585.84;5064654;28;20091;-88
2022/10/13 03:06:22;;;;;;;24.95;14.95;;;;;;;8.99;74.50;94574.97;5064652;28;20265;-87
2022/10/13 03:08:48;;;;;;;30.30;15.82;;;;;;;8.97;74.53;94582.44;5062481;28;20047;-86
2022/10/13 03:11:13;;;;;;;35.22;17.23;;;;;;;8.95;75.15;94579.28;5064805;28;20016;-88
2022/10/13 03:13:39;;;;;;;28.48;15.25;;;;;;;8.95;75.39;94579.28;5064713;28;20024;-88
2022/10/13 03:16:05;;;;;;;36.40;16.45;;;;;;;8.93;75.87;94583.31;5064653;28;20036;-88
2022/10/13 03:18:30;;;;;;;33.28;17.85;;;;;;;8.93;76.93;94583.31;5064693;28;20028;-86
2022/10/13 03:21:01;;;;;;;28.38;16.33;;;;;;;8.89;77.51;94588.38;5064530;28;20043;-87
2022/10/13 03:23:27;;;;;;;34.40;17.05;;;;;;;8.85;77.29;94595.34;5064272;28;20112;-87
2022/10/13 03:25:52;;;;;;;32.95;16.88;;;;;;;8.79;77.32;94599.94;5064348;28;20036;-87
2022/10/13 03:28:18;;;;;;;31.67;16.13;;;;;;;8.77;77.66;94598.63;5063006;28;20075;-87
2022/10/13 03:30:43;;;;;;;31.88;16.27;;;;;;;8.75;77.89;94598.94;5064275;28;20024;-88
2022/10/13 03:33:09;;;;;;;29.13;16.40;;;;;;;8.75;78.24;94600.78;5062987;28;20063;-87
2022/10/13 03:35:35;;;;;;;35.22;17.73;;;;;;;8.74;78.50;94599.22;5064524;28;20253;-86
2022/10/13 03:38:01;;;;;;;43.95;21.08;;;;;;;8.77;78.80;94603.94;5063977;28;20049;-86
2022/10/13 03:40:27;;;;;;;34.67;19.25;;;;;;;8.77;79.17;94603.94;5063523;28;20045;-86
2022/10/13 03:42:52;;;;;;;44.60;20.23;;;;;;;8.78;79.34;94606.34;5063861;28;21073;-86
2022/10/13 03:45:18;;;;;;;31.55;18.15;;;;;;;8.80;79.39;94609.50;5063826;28;20024;-86
2022/10/13 03:47:43;;;;;;;33.60;17.33;;;;;;;8.82;78.98;94603.91;5063795;28;20313;-86
2022/10/13 03:50:09;;;;;;;41.08;18.52;;;;;;;8.82;79.00;94606.56;5063741;28;20063;-86
2022/10/13 03:52:34;;;;;;;35.80;21.88;;;;;;;8.82;78.93;94601.25;5062097;28;20357;-85
2022/10/13 03:55:00;;;;;;;45.28;22.65;;;;;;;8.81;79.29;94602.31;5063546;28;20172;-84
2022/10/13 03:57:25;;;;;;;40.70;22.02;;;;;;;8.76;79.61;94597.84;5063458;28;20017;-85
2022/10/13 03:59:51;;;;;;;43.72;22.88;;;;;;;8.73;79.50;94589.63;5063357;28;20028;-86
2022/10/13 04:02:16;;;;;;;46.22;24.10;;;;;;;8.74;78.96;94589.38;5063371;28;20311;-83
2022/10/13 04:04:42;;;;;;;48.53;24.65;;;;;;;8.75;78.49;94590.97;5063542;28;20310;-84
2022/10/13 04:07:07;;;;;;;47.35;25.98;;;;;;;8.74;78.59;94588.56;5063148;28;20204;-84
2022/10/13 04:09:33;;;;;;;42.95;25.88;;;;;;;8.77;78.50;94588.81;5063092;28;20097;-84
2022/10/13 04:11:59;;;;;;;49.60;24.67;;;;;;;8.77;78.61;94591.47;5063235;28;20025;-84
2022/10/13 04:14:25;;;;;;;45.65;24.55;;;;;;;8.78;78.43;94589.59;5062936;28;20254;-81
2022/10/13 04:16:50;;;;;;;47.20;25.15;;;;;;;8.78;78.11;94589.59;5062982;28;20024;-82
2022/10/13 04:19:16;;;;;;;40.25;22.85;;;;;;;8.77;78.04;94588.81;5062371;28;20017;-83
2022/10/13 04:21:42;;;;;;;39.83;23.48;;;;;;;8.79;77.74;94585.84;5062482;28;20029;-84
2022/10/13 04:24:11;;;;;;;41.20;23.27;;;;;;;8.78;77.53;94574.44;5062547;28;20075;-84
2022/10/13 04:26:37;;;;;;;38.05;21.60;;;;;;;8.77;77.15;94582.69;5061469;28;20028;-85
2022/10/13 04:29:07;;;;;;;39.10;21.42;;;;;;;8.72;77.57;94574.78;5062868;28;20114;-85
2022/10/13 04:31:33;;;;;;;49.45;22.33;;;;;;;8.67;77.82;94575.63;5061496;28;20031;-84
2022/10/13 04:33:59;;;;;;;46.13;21.38;;;;;;;8.66;77.35;94584.66;5062836;28;20277;-85
2022/10/13 04:36:25;;;;;;;43.35;21.90;;;;;;;8.67;77.35;94585.47;5062405;28;20021;-84
2022/10/13 04:38:51;;;;;;;37.30;21.70;;;;;;;8.68;77.29;94573.75;5062476;28;20349;-84
2022/10/13 04:41:18;;;;;;;48.13;21.40;;;;;;;8.67;77.16;94582.78;5062564;28;20060;-85
2022/10/13 04:43:47;;;;;;;40.45;19.33;;;;;;;8.67;77.41;94567.66;5062485;28;20096;-86
2022/10/13 04:46:15;;;;;;;43.30;20.73;;;;;;;8.72;77.07;94585.41;5062310;28;20095;-86
2022/10/13 04:48:41;;;;;;;34.08;18.10;;;;;;;8.67;77.15;94580.13;5062494;28;20021;-85
2022/10/13 04:51:09;;;;;;;50.70;21.83;;;;;;;8.65;77.45;94577.78;5062430;28;20097;-82
2022/10/13 04:53:35;;;;;;;51.58;21.85;;;;;;;8.65;78.14;94580.44;5062382;28;20099;-83
2022/10/13 04:56:07;;;;;;;45.85;21.90;;;;;;;8.60;78.38;94591.91;5062378;28;20207;-82
2022/10/13 04:58:33;;;;;;;39.47;20.90;;;;;;;8.60;78.56;94594.56;5062374;28;20066;-82
2022/10/13 05:00:59;;;;;;;39.85;20.33;;;;;;;8.60;78.60;94591.91;5062365;28;20028;-84
2022/10/13 05:03:25;;;;;;;45.40;20.88;;;;;;;8.64;78.95;94600.09;5062216;28;20028;-83
2022/10/13 05:05:51;;;;;;;40.17;20.17;;;;;;;8.66;78.94;94599.84;5062055;28;20273;-84
2022/10/13 05:08:16;;;;;;;40.03;19.35;;;;;;;8.70;79.16;94598.19;5062210;28;20040;-84
2022/10/13 05:10:42;;;;;;;43.92;18.38;;;;;;;8.74;79.00;94600.00;5062635;28;20028;-84
2022/10/13 05:13:07;;;;;;;46.90;20.90;;;;;;;8.78;79.37;94595.69;5062076;28;20301;-84
2022/10/13 05:15:33;;;;;;;41.60;19.92;;;;;;;8.83;79.51;94602.81;5062016;28;20330;-83
2022/10/13 05:17:59;;;;;;;52.40;21.38;;;;;;;8.84;79.62;94610.50;5062456;28;20016;-81
2022/10/13 05:20:25;;;;;;;58.95;21.13;;;;;;;8.89;79.80;94603.56;5062165;28;20307;-84
2022/10/13 05:22:50;;;;;;;59.60;22.88;;;;;;;8.89;79.91;94614.19;5061922;28;20067;-85
2022/10/13 05:25:16;;;;;;;45.97;21.42;;;;;;;8.91;79.94;94612.81;5062045;28;20099;-87
2022/10/13 05:27:44;;;;;;;45.38;21.92;;;;;;;8.94;80.16;94611.50;5062250;28;20327;-86
2022/10/13 05:30:10;;;;;;;50.13;20.10;;;;;;;8.96;80.39;94620.75;5062249;28;20048;-85
2022/10/13 05:32:35;;;;;;;41.58;21.02;;;;;;;8.97;80.46;94624.97;5065060;28;20241;-85
2022/10/13 05:35:01;;;;;;;39.47;20.85;;;;;;;8.97;80.25;94618.88;5066150;28;20032;-86
2022/10/13 05:37:26;;;;;;;40.88;19.33;;;;;;;8.98;80.34;94623.91;5064904;28;20040;-86
2022/10/13 05:39:52;;;;;;;43.38;17.02;;;;;;;9.00;79.62;94628.97;5064823;28;20024;-86
2022/10/13 05:42:18;;;;;;;45.08;19.10;;;;;;;9.02;79.36;94629.47;5065773;28;20021;-85
2022/10/13 05:44:43;;;;;;;35.58;18.25;;;;;;;9.06;79.31;94637.66;5064878;28;20067;-86
2022/10/13 05:47:08;;;;;;;40.90;19.85;;;;;;;9.08;79.26;94643.47;5065682;28;20290;-84
2022/10/13 05:49:38;;;;;;;33.70;17.92;;;;;;;9.14;79.42;94637.03;5065731;28;20387;-87
2022/10/13 05:52:09;;;;;;;40.97;18.52;;;;;;;9.16;79.29;94643.66;5065550;28;20200;-87
2022/10/13 05:54:40;;;;;;;38.78;19.48;;;;;;;9.18;79.43;94646.00;5065778;28;20242;-86
2022/10/13 05:57:17;;;;;;;38.42;19.20;;;;;;;9.18;79.36;94643.34;5065789;28;20021;-84
2022/10/13 05:59:58;;;;;;;48.03;20.75;;;;;;;9.17;79.57;94655.88;5064178;28;20044;-86
2022/10/13 06:02:27;;;;;;;39.53;17.98;;;;;;;9.23;79.88;94660.06;5065447;28;20025;-86
2022/10/13 06:04:56;;;;;;;40.03;19.98;;;;;;;9.24;79.76;94658.22;5065389;28;20036;-87
2022/10/13 06:07:22;;;;;;;36.33;18.55;;;;;;;9.29;79.86;94652.81;5065347;28;20029;-86
2022/10/13 06:09:48;;;;;;;38.90;18.42;;;;;;;9.33;79.50;94648.50;5065208;28;20338;-85
2022/10/13 06:12:14;;;;;;;46.67;18.58;;;;;;;9.43;79.23;94639.59;5065477;28;20088;-85
2022/10/13 06:14:39;;;;;;;39.10;17.83;;;;;;;9.51;79.02;94648.81;5065352;28;20049;-85
2022/10/13 06:17:05;;;;;;;44.83;18.98;;;;;;;9.63;78.78;94651.84;5065151;28;20077;-83
2022/10/13 06:19:31;;;;;;;38.88;17.67;;;;;;;9.75;78.24;94644.22;5065305;28;20072;-83
2022/10/13 06:21:56;;;;;;;35.58;18.48;;;;;;;9.85;77.36;94643.28;5064729;28;20028;-83
2022/10/13 06:24:22;;;;;;;32.88;18.17;;;;;;;9.91;77.30;94651.97;5064996;28;20479;-83
2022/10/13 06:26:47;;;;;;;37.15;17.40;;;;;;;10.08;76.65;94648.81;5064782;28;20021;-82
2022/10/13 06:29:13;;;;;;;34.67;17.52;;;;;;;10.20;76.60;94647.28;5065058;28;20021;-83
2022/10/13 06:31:38;;;;;;;46.67;19.92;;;;;;;10.20;76.79;94647.28;5064705;28;20041;-82
2022/10/13 06:34:04;;;;;;;39.92;18.55;;;;;;;10.31;76.84;94647.13;5065011;28;20024;-82
2022/10/13 06:36:29;;;;;;;43.10;19.00;;;;;;;10.36;76.06;94647.84;5064982;28;20016;-82
2022/10/13 06:38:54;;;;;;;38.30;19.30;;;;;;;10.42;75.96;94648.53;5064929;28;20276;-81
2022/10/13 06:41:20;;;;;;;44.40;19.83;;;;;;;10.48;75.75;94644.69;5064764;28;20017;-76
2022/10/13 06:43:45;;;;;;;36.65;17.58;;;;;;;10.53;75.14;94641.19;5063362;28;20017;-76
2022/10/13 06:46:11;;;;;;;39.15;18.17;;;;;;;10.54;75.31;94632.09;5065598;28;20247;-76
2022/10/13 06:48:37;;;;;;;35.05;18.67;;;;;;;10.54;75.39;94642.75;5064759;28;20091;-75
2022/10/13 06:51:04;;;;;;;42.42;18.40;;;;;;;10.60;75.14;94639.72;5064738;28;20023;-75
2022/10/13 06:53:30;;;;;;;35.58;17.95;;;;;;;10.70;74.62;94629.94;5064548;28;20017;-75
2022/10/13 06:56:00;;;;;;;39.47;19.27;;;;;;;10.75;74.67;94627.97;5064287;28;20319;-76
2022/10/13 06:58:27;;;;;;;35.47;17.33;;;;;;;10.81;75.16;94637.47;5064352;28;20223;-75
2022/10/13 07:00:53;;;;;;;36.03;18.10;;;;;;;10.93;75.02;94638.84;5064062;28;20033;-76
2022/10/13 07:03:18;;;;;;;35.75;17.67;;;;;;;11.02;73.99;94637.88;5064163;28;20260;-76
2022/10/13 07:05:44;;;;;;;37.40;19.48;;;;;;;11.11;73.86;94629.16;5063790;28;20032;-75
2022/10/13 07:08:09;;;;;;;54.38;20.02;;;;;;;11.17;73.57;94636.81;5063737;28;20348;-76
2022/10/13 07:10:36;;;;;;;42.42;18.60;;;;;;;11.21;72.99;94631.63;5063919;28;20036;-76
2022/10/13 07:13:02;;;;;;;33.78;17.55;;;;;;;11.23;72.59;94635.59;5064203;28;20040;-75
2022/10/13 07:15:27;;;;;;;46.95;18.80;;;;;;;11.30;72.43;94635.19;5063046;28;20033;-74
2022/10/13 07:17:53;;;;;;;35.25;18.48;;;;;;;11.23;72.04;94632.94;5062429;28;20053;-75
2022/10/13 07:20:23;;;;;;;35.35;17.77;;;;;;;11.31;71.68;94626.09;5063574;28;20091;-75
2022/10/13 07:22:49;;;;;;;45.15;17.92;;;;;;;11.38;71.48;94625.72;5062403;28;20356;-80
2022/10/13 07:25:15;;;;;;;37.38;18.88;;;;;;;11.33;72.14;94639.16;5063546;28;20041;-79
2022/10/13 07:27:40;;;;;;;34.00;18.02;;;;;;;11.31;72.09;94626.09;5063640;28;20032;-80
2022/10/13 07:30:07;;;;;;;37.70;18.58;;;;;;;11.47;71.94;94631.13;5063672;28;20018;-78
2022/10/13 07:32:34;;;;;;;40.13;18.83;;;;;;;11.67;71.17;94641.38;5063639;28;20024;-77
2022/10/13 07:34:59;;;;;;;41.85;18.60;;;;;;;11.77;70.38;94635.03;5063528;28;20021;-77
2022/10/13 07:37:25;;;;;;;47.72;18.77;;;;;;;11.89;69.80;94634.53;5063467;28;20024;-77
2022/10/13 07:39:51;;;;;;;50.03;28.02;;;;;;;11.95;69.83;94636.00;5063257;28;20044;-80
2022/10/13 07:42:16;;;;;;;48.78;20.20;;;;;;;11.89;69.82;94631.84;5063379;28;20334;-79
2022/10/13 07:44:42;;;;;;;41.10;22.27;;;;;;;11.94;70.17;94626.38;5063199;28;20021;-80
2022/10/13 07:47:07;;;;;;;42.58;18.83;;;;;;;11.90;70.07;94631.53;5062009;28;20032;-77
2022/10/13 07:49:33;;;;;;;37.72;18.17;;;;;;;12.02;69.83;94623.00;5063266;28;20104;-81
2022/10/13 07:51:58;;;;;;;36.42;18.33;;;;;;;12.19;69.43;94625.78;5062257;28;20029;-83
2022/10/13 07:54:24;;;;;;;37.47;18.52;;;;;;;12.35;68.86;94622.75;5062953;28;20236;-83
2022/10/13 07:56:53;;;;;;;37.28;19.95;;;;;;;12.47;68.02;94628.31;5063046;28;20016;-83
2022/10/13 07:59:19;;;;;;;33.13;18.83;;;;;;;12.43;68.12;94624.66;5063094;28;20021;-82
2022/10/13 08:01:44;;;;;;;36.63;17.50;;;;;;;12.49;67.62;94628.78;5063039;28;20395;-82
2022/10/13 08:04:10;;;;;;;29.98;17.67;;;;;;;12.51;67.08;94621.25;5062864;28;20071;-82
2022/10/13 08:06:36;;;;;;;35.70;17.30;;;;;;;12.64;67.05;94624.97;5062996;28;20236;-82
2022/10/13 08:09:03;;;;;;;40.92;16.73;;;;;;;12.76;66.45;94617.16;5063215;28;20249;-81
2022/10/13 08:11:29;;;;;;;39.78;18.00;;;;;;;12.83;65.90;94622.06;5063185;28;20341;-81
2022/10/13 08:13:59;;;;;;;35.67;17.83;;;;;;;12.90;66.31;94621.59;5062936;28;20254;-78
2022/10/13 08:16:25;;;;;;;38.25;20.33;;;;;;;12.84;65.88;94615.59;5062954;28;20013;-79
2022/10/13 08:18:50;;;;;;;46.10;18.08;;;;;;;12.90;65.96;94610.91;5062882;28;20062;-82
2022/10/13 08:21:18;;;;;;;41.08;19.27;;;;;;;12.96;65.49;94610.44;5062813;28;20029;-79
2022/10/13 08:23:44;;;;;;;34.05;18.55;;;;;;;13.00;65.65;94615.97;5062742;28;20041;-82
2022/10/13 08:26:23;;;;;;;39.95;18.27;;;;;;;13.04;65.75;94607.00;5062628;28;20021;-80
2022/10/13 08:28:49;;;;;;;35.67;18.52;;;;;;;13.14;65.53;94613.19;5062562;28;20095;-80
2022/10/13 08:31:14;;;;;;;42.42;18.50;;;;;;;13.28;64.90;94611.19;5062596;28;20224;-81
2022/10/13 08:33:40;;;;;;;42.67;19.73;;;;;;;13.31;65.22;94607.94;5062638;28;20029;-81
2022/10/13 08:36:07;;;;;;;40.88;18.58;;;;;;;13.38;64.74;94604.78;5062710;28;20030;-80
2022/10/13 08:38:33;;;;;;;50.47;18.60;;;;;;;13.35;64.80;94603.53;5062534;28;20082;-80
2022/10/13 08:40:59;;;;;;;34.63;18.38;;;;;;;13.48;64.56;94606.38;5062821;28;20025;-81
2022/10/13 08:43:25;;;;;;;46.03;20.60;;;;;;;13.35;64.39;94608.88;5062356;28;20021;-80
2022/10/13 08:45:55;;;;;;;38.78;18.73;;;;;;;13.48;64.47;94599.13;5062245;28;20025;-80
2022/10/13 08:48:28;;;;;;;37.60;18.30;;;;;;;13.52;63.69;94593.94;5062533;28;20069;-78
2022/10/13 08:50:58;;;;;;;34.30;18.45;;;;;;;13.65;63.94;94596.47;5062417;28;20020;-81
2022/10/13 08:53:29;;;;;;;35.88;17.30;;;;;;;13.75;62.95;94587.34;5062389;28;20042;-81
2022/10/13 08:55:58;;;;;;;34.55;17.75;;;;;;;13.86;63.11;94590.50;5062017;28;20025;-81
2022/10/13 08:58:27;;;;;;;36.78;18.52;;;;;;;13.99;63.03;94594.13;5062180;28;20349;-82
2022/10/13 09:01:08;;;;;;;37.33;18.25;;;;;;;14.05;62.43;94584.81;5061086;28;20092;-82
2022/10/13 09:03:58;;;;;;;45.28;18.98;;;;;;;14.13;62.23;94583.25;5062281;28;20304;-81
2022/10/13 09:06:30;;;;;;;35.30;19.08;;;;;;;14.15;62.44;94584.50;5063367;28;20025;-81
2022/10/13 09:09:05;;;;;;;46.72;19.40;;;;;;;14.07;62.95;94579.16;5066377;28;20315;-80
2022/10/13 09:11:34;;;;;;;37.88;19.85;;;;;;;14.25;62.84;94573.44;5066489;28;20257;-80
2022/10/13 09:14:03;;;;;;;32.72;18.33;;;;;;;14.49;61.71;94574.81;5066194;28;20044;-81
2022/10/13 09:16:40;;;;;;;33.97;17.90;;;;;;;14.67;60.42;94577.47;5066340;28;20024;-80
2022/10/13 09:19:18;;;;;;;49.45;20.38;;;;;;;14.76;60.90;94575.53;5066261;28;20067;-81
2022/10/13 09:21:43;;;;;;;38.97;19.48;;;;;;;14.80;59.79;94579.16;5066135;28;20062;-81
2022/10/13 09:24:15;;;;;;;50.63;20.90;;;;;;;14.80;60.21;94565.75;5066130;28;20297;-81
2022/10/13 09:26:41;;;;;;;38.90;18.85;;;;;;;14.94;60.59;94562.81;5065875;28;20025;-81
2022/10/13 09:29:18;;;;;;;36.67;20.13;;;;;;;15.17;60.66;94563.34;5065762;28;20025;-81
2022/10/13 09:31:44;;;;;;;32.13;15.82;;;;;;;15.33;59.59;94555.53;5064687;28;20075;-81
2022/10/13 09:34:17;;;;;;;36.05;17.10;;;;;;;15.46;58.42;94551.78;5065906;28;20215;-80
2022/10/13 09:36:58;;;;;;;37.90;17.95;;;;;;;15.56;57.58;94553.31;5065772;28;20017;-79
2022/10/13 09:39:24;;;;;;;33.47;17.52;;;;;;;15.59;57.30;94547.25;5065803;28;20083;-80
2022/10/13 09:41:50;;;;;;;32.17;16.50;;;;;;;15.47;57.82;94544.50;5065742;28;20020;-80
2022/10/13 09:44:18;;;;;;;32.30;17.75;;;;;;;15.55;57.54;94540.97;5065901;28;20017;-84
2022/10/13 09:46:53;;;;;;;35.30;16.13;;;;;;;15.70;57.84;94548.44;5065782;28;20215;-84
2022/10/13 09:49:30;;;;;;;32.95;16.38;;;;;;;15.86;57.13;94553.28;5065553;28;20066;-80
2022/10/13 09:52:18;;;;;;;37.38;18.02;;;;;;;16.03;55.86;94548.50;5065614;28;20025;-80
2022/10/13 09:54:48;;;;;;;37.42;17.05;;;;;;;16.11;55.69;94541.47;5065378;28;20088;-78
2022/10/13 09:57:37;;;;;;;29.85;15.60;;;;;;;16.19;56.15;94537.94;5065633;28;20315;-81
2022/10/13 10:00:15;;;;;;;27.30;15.77;;;;;;;16.32;55.36;94536.03;5065503;28;20025;-77
2022/10/13 10:03:28;;;;;;;38.72;16.70;;;;;;;16.43;54.91;94536.44;5065645;28;20028;-79
2022/10/13 10:06:00;;;;;;;32.25;17.23;;;;;;;16.44;54.57;94527.22;5065743;28;20033;-79
2022/10/13 10:08:49;;;;;;;36.15;19.30;;;;;;;16.44;55.77;94532.59;5064231;28;20319;-78
2022/10/13 10:11:25;;;;;;;34.38;16.90;;;;;;;16.43;55.83;94525.66;5065401;28;20025;-77
2022/10/13 10:13:51;;;;;;;45.67;18.45;;;;;;;16.43;56.62;94514.91;5065142;28;20024;-80
2022/10/13 10:16:16;;;;;;;34.88;17.98;;;;;;;16.32;56.85;94516.44;5065099;28;20024;-78
2022/10/13 10:18:52;;;;;;;41.53;17.52;;;;;;;16.33;55.63;94510.72;5063862;28;20052;-76
2022/10/13 10:21:45;;;;;;;40.78;17.10;;;;;;;16.38;54.52;94502.44;5065290;28;20021;-78
2022/10/13 10:24:43;;;;;;;37.67;17.63;;;;;;;16.42;55.52;94508.75;5065338;28;20053;-79
2022/10/13 10:27:23;;;;;;;33.92;17.13;;;;;;;16.50;54.75;94504.34;5064940;28;20043;-80
2022/10/13 10:30:01;;;;;;;30.88;16.90;;;;;;;16.54;54.57;94507.94;5064781;28;20016;-78
2022/10/13 10:32:54;;;;;;;36.20;17.48;;;;;;;16.68;55.24;94506.84;5064966;28;20120;-79
2022/10/13 10:35:45;;;;;;;33.58;15.88;;;;;;;16.86;54.66;94497.47;5064773;28;20024;-78
2022/10/13 10:38:41;;;;;;;34.50;15.47;;;;;;;17.05;53.50;94494.19;5064994;28;20040;-77
2022/10/13 10:41:42;;;;;;;30.05;15.75;;;;;;;17.26;52.70;94491.38;5064685;28;20029;-80
2022/10/13 10:44:11;;;;;;;30.92;14.25;;;;;;;17.42;52.71;94484.16;5063410;28;20033;-78
2022/10/13 10:46:44;;;;;;;22.48;12.15;;;;;;;17.67;52.38;94484.09;5064848;28;20021;-79
2022/10/13 10:49:29;;;;;;;29.70;12.88;;;;;;;17.86;51.86;94469.22;5064707;28;20020;-80
2022/10/13 10:51:56;;;;;;;30.70;15.88;;;;;;;17.89;50.27;94479.28;5062597;28;20223;-77
2022/10/13 10:54:27;;;;;;;44.65;17.05;;;;;;;17.80;50.31;94472.09;5064534;28;20036;-77
2022/10/13 10:57:00;;;;;;;39.95;16.80;;;;;;;17.63;50.81;94467.03;5064401;28;20020;-78
2022/10/13 10:59:47;;;;;;;30.92;16.20;;;;;;;17.40;52.30;94462.16;5064469;28;20033;-78
2022/10/13 11:02:37;;;;;;;42.10;16.63;;;;;;;17.35;52.14;94462.38;5064248;28;20045;-79
2022/10/13 11:05:03;;;;;;;37.63;15.32;;;;;;;17.35;51.72;94459.69;5064519;28;20025;-78
2022/10/13 11:07:29;;;;;;;38.08;15.55;;;;;;;17.54;51.89;94455.59;5064100;28;20311;-80
2022/10/13 11:09:56;;;;;;;45.53;14.80;;;;;;;17.67;52.18;94445.53;5064176;28;20036;-81
2022/10/13 11:12:21;;;;;;;40.88;14.43;;;;;;;17.81;51.66;94435.94;5064003;28;20047;-82
2022/10/13 11:14:52;;;;;;;27.50;13.60;;;;;;;17.91;51.91;94445.47;5062824;28;20025;-80
2022/10/13 11:17:31;;;;;;;24.27;13.52;;;;;;;17.94;50.81;94438.59;5063919;28;20082;-82
2022/10/13 11:19:57;;;;;;;23.02;12.05;;;;;;;17.95;49.19;94437.47;5062559;28;20029;-81
2022/10/13 11:22:26;;;;;;;26.58;12.38;;;;;;;18.04;49.26;94424.63;5063828;28;20087;-79
2022/10/13 11:24:55;;;;;;;20.48;11.75;;;;;;;18.27;50.52;94430.19;5063823;28;20135;-78
2022/10/13 11:27:29;;;;;;;27.90;11.60;;;;;;;18.50;49.50;94424.19;5063700;28;20025;-80
2022/10/13 11:29:57;;;;;;;16.70;10.57;;;;;;;18.81;48.60;94426.13;5063109;28;20061;-81
2022/10/13 11:35:09;;;;;;;18.67;10.50;;;;;;;19.05;46.15;94419.69;5062734;28;20029;-79